LYBE/BEG METAR and TAF weather

Enter ICAO airport designator
Station Type Date Time Source
LYBE METAR 2019/03/24 14:00 UTC NOAA

LYBE 241400Z VRB02KT CAVOK 21/M03 Q1020 NOSIG


Station Type Date Time Source
LYBE Decoded METAR 2019/03/24 14:00 UTC NOAA

Beograd / Surcin, Serbia and Montenegro (LYBE) 44-49N 020-17E 99M
Mar 24, 2019 - 10:00 AM EDT / 2019.03.24 1400 UTC
Wind: Variable at 2 MPH (2 KT):0
Visibility: greater than 7 mile(s):0
Temperature: 69 F (21 C)
Dew Point: 26 F (-3 C)
Relative Humidity: 19%
Pressure (altimeter): 30.12 in. Hg (1020 hPa)
ob: LYBE 241400Z VRB02KT CAVOK 21/M03 Q1020 NOSIG
cycle: 14

Station Type Date Time Source
LYBE TAF 2019/03/24 12:23 UTC NOAA

TAF LYBE 241100Z 2412/2512 27005KT CAVOK TX21/2414Z TN03/2505Z

Example: see airport list